IGO6187 VEBS-VOHS
Flight info
| Callsign | IGO6187 |
|---|---|
| Flight time | N/A |
| Altitude | 32000 |
| Route | MEPOL W41 ANBAS VITUR8 |
| Aircraft | A320/M-SDE3FGHIRWY/LB1 |
Departure
| Time | N/A |
|---|---|
| Airport | Biju Patnaik International Airport (VEBS) |
Arrival
| Time | 2026-04-17 14:14 |
|---|---|
| Airport | Rajiv Gandhi International Airport (VOHS) |
| Time | Latitude | Longitude | Altitude | Speed | Heading |
|---|---|---|---|---|---|
| 2026-04-17 13:25 | 18.39561 | 82.25860 | 31880 ft | 423 kts | 241° |
| 2026-04-17 13:26 | 18.37161 | 82.21375 | 31878 ft | 423 kts | 241° |
| 2026-04-17 13:26 | 18.33786 | 82.15084 | 31876 ft | 422 kts | 241° |
| 2026-04-17 13:27 | 18.31390 | 82.10613 | 31873 ft | 422 kts | 241° |
| 2026-04-17 13:27 | 18.28035 | 82.04364 | 31856 ft | 422 kts | 241° |
| 2026-04-17 13:28 | 18.25616 | 81.99861 | 31852 ft | 422 kts | 241° |
| 2026-04-17 13:28 | 18.22729 | 81.94491 | 31827 ft | 422 kts | 241° |
| 2026-04-17 13:29 | 18.19842 | 81.89119 | 31829 ft | 422 kts | 241° |
| 2026-04-17 13:29 | 18.16950 | 81.83745 | 31827 ft | 422 kts | 241° |
| 2026-04-17 13:30 | 18.14073 | 81.78412 | 31824 ft | 422 kts | 241° |
| 2026-04-17 13:30 | 18.11181 | 81.73050 | 31833 ft | 422 kts | 241° |
| 2026-04-17 13:31 | 18.08289 | 81.67691 | 31831 ft | 422 kts | 241° |
| 2026-04-17 13:31 | 18.05393 | 81.62330 | 31831 ft | 421 kts | 241° |
| 2026-04-17 13:32 | 18.02502 | 81.56984 | 31838 ft | 421 kts | 241° |
| 2026-04-17 13:32 | 17.99611 | 81.51643 | 31840 ft | 420 kts | 241° |
| 2026-04-17 13:33 | 17.96720 | 81.46315 | 31838 ft | 420 kts | 241° |
| 2026-04-17 13:33 | 17.93830 | 81.40984 | 31838 ft | 420 kts | 241° |
| 2026-04-17 13:34 | 17.90941 | 81.35659 | 31835 ft | 420 kts | 241° |
| 2026-04-17 13:34 | 17.88049 | 81.30330 | 31824 ft | 420 kts | 241° |
| 2026-04-17 13:35 | 17.85158 | 81.25006 | 31836 ft | 420 kts | 241° |
| 2026-04-17 13:35 | 17.82267 | 81.19692 | 31839 ft | 418 kts | 241° |
| 2026-04-17 13:36 | 17.79384 | 81.14396 | 31838 ft | 418 kts | 241° |
| 2026-04-17 13:36 | 17.76517 | 81.09142 | 31836 ft | 417 kts | 241° |
| 2026-04-17 13:37 | 17.73638 | 81.03863 | 31830 ft | 417 kts | 241° |
| 2026-04-17 13:37 | 17.70760 | 80.98589 | 31827 ft | 417 kts | 241° |
| 2026-04-17 13:38 | 17.67881 | 80.93315 | 31826 ft | 416 kts | 241° |
| 2026-04-17 13:38 | 17.65001 | 80.88051 | 31832 ft | 416 kts | 241° |
| 2026-04-17 13:39 | 17.62119 | 80.82793 | 31829 ft | 415 kts | 241° |
| 2026-04-17 13:39 | 17.59242 | 80.77546 | 31827 ft | 415 kts | 241° |
| 2026-04-17 13:40 | 17.56368 | 80.72293 | 31824 ft | 419 kts | 241° |
| 2026-04-17 13:40 | 17.53481 | 80.66996 | 31822 ft | 416 kts | 241° |
| 2026-04-17 13:41 | 17.50612 | 80.61780 | 31824 ft | 416 kts | 241° |
| 2026-04-17 13:41 | 17.47718 | 80.56530 | 31824 ft | 416 kts | 241° |
| 2026-04-17 13:42 | 17.44825 | 80.51274 | 31825 ft | 416 kts | 240° |
| 2026-04-17 13:42 | 17.41944 | 80.46041 | 31827 ft | 415 kts | 240° |
| 2026-04-17 13:43 | 17.39069 | 80.40810 | 31829 ft | 415 kts | 240° |
| 2026-04-17 13:43 | 17.36185 | 80.35578 | 31828 ft | 415 kts | 240° |
| 2026-04-17 13:44 | 17.33297 | 80.30354 | 31833 ft | 415 kts | 240° |
| 2026-04-17 13:44 | 17.30419 | 80.25127 | 31835 ft | 415 kts | 240° |
| 2026-04-17 13:45 | 17.27535 | 80.19898 | 31838 ft | 415 kts | 240° |
| 2026-04-17 13:45 | 17.24978 | 80.14517 | 31841 ft | 414 kts | 253° |
| 2026-04-17 13:46 | 17.24241 | 80.08575 | 31839 ft | 414 kts | 269° |
| 2026-04-17 13:46 | 17.24222 | 80.02555 | 31837 ft | 414 kts | 268° |
| 2026-04-17 13:47 | 17.24190 | 79.96535 | 31842 ft | 414 kts | 268° |
| 2026-04-17 13:47 | 17.24158 | 79.90554 | 31772 ft | 412 kts | 268° |
| 2026-04-17 13:48 | 17.24142 | 79.87552 | 31522 ft | 403 kts | 268° |
| 2026-04-17 13:48 | 17.24127 | 79.84686 | 31289 ft | 397 kts | 268° |
| 2026-04-17 13:48 | 17.24109 | 79.81805 | 31052 ft | 394 kts | 268° |
| 2026-04-17 13:48 | 17.24090 | 79.78944 | 30822 ft | 393 kts | 268° |
| 2026-04-17 13:49 | 17.24070 | 79.76093 | 30588 ft | 391 kts | 268° |
| 2026-04-17 13:49 | 17.24050 | 79.73252 | 30357 ft | 390 kts | 268° |
| 2026-04-17 13:49 | 17.24032 | 79.70425 | 30136 ft | 387 kts | 268° |
| 2026-04-17 13:49 | 17.24015 | 79.67620 | 29735 ft | 384 kts | 268° |
| 2026-04-17 13:50 | 17.23999 | 79.64833 | 29322 ft | 382 kts | 268° |
| 2026-04-17 13:50 | 17.23981 | 79.62062 | 28930 ft | 380 kts | 268° |
| 2026-04-17 13:50 | 17.23959 | 79.59310 | 28551 ft | 377 kts | 268° |
| 2026-04-17 13:50 | 17.23938 | 79.56573 | 28183 ft | 375 kts | 268° |
| 2026-04-17 13:51 | 17.23918 | 79.53849 | 27808 ft | 373 kts | 268° |
| 2026-04-17 13:51 | 17.23898 | 79.51145 | 27523 ft | 369 kts | 268° |
| 2026-04-17 13:51 | 17.23880 | 79.48491 | 27395 ft | 361 kts | 268° |
| 2026-04-17 13:51 | 17.23863 | 79.45892 | 27074 ft | 358 kts | 268° |
| 2026-04-17 13:52 | 17.23844 | 79.43260 | 26100 ft | 366 kts | 268° |
| 2026-04-17 13:52 | 17.23821 | 79.40608 | 25853 ft | 360 kts | 268° |
| 2026-04-17 13:52 | 17.23797 | 79.38004 | 25531 ft | 357 kts | 268° |
| 2026-04-17 13:52 | 17.23773 | 79.35410 | 25146 ft | 356 kts | 268° |
| 2026-04-17 13:53 | 17.23749 | 79.32829 | 24752 ft | 355 kts | 268° |
| 2026-04-17 13:53 | 17.23725 | 79.30250 | 24346 ft | 355 kts | 268° |
| 2026-04-17 13:53 | 17.23702 | 79.27674 | 23952 ft | 354 kts | 269° |
| 2026-04-17 13:53 | 17.23682 | 79.25093 | 23539 ft | 355 kts | 269° |
| 2026-04-17 13:54 | 17.23640 | 79.19942 | 22660 ft | 353 kts | 269° |
| 2026-04-17 13:54 | 17.23615 | 79.17379 | 22246 ft | 351 kts | 269° |
| 2026-04-17 13:55 | 17.23564 | 79.12328 | 21428 ft | 349 kts | 269° |
| 2026-04-17 13:55 | 17.23469 | 79.09765 | 21001 ft | 348 kts | 262° |
| 2026-04-17 13:55 | 17.22685 | 79.04784 | 20165 ft | 347 kts | 260° |
| 2026-04-17 13:56 | 17.21887 | 78.99818 | 19334 ft | 347 kts | 261° |
| 2026-04-17 13:56 | 17.21493 | 78.97360 | 18936 ft | 347 kts | 261° |
| 2026-04-17 13:56 | 17.21095 | 78.94872 | 18509 ft | 347 kts | 261° |
| 2026-04-17 13:57 | 17.20694 | 78.92380 | 18081 ft | 348 kts | 261° |
| 2026-04-17 13:57 | 17.20287 | 78.89856 | 17628 ft | 347 kts | 261° |
| 2026-04-17 13:57 | 17.19497 | 78.84935 | 16796 ft | 344 kts | 261° |
| 2026-04-17 13:58 | 17.19106 | 78.82478 | 16406 ft | 342 kts | 261° |
| 2026-04-17 13:58 | 17.18327 | 78.77596 | 15597 ft | 339 kts | 261° |
| 2026-04-17 13:58 | 17.17935 | 78.75169 | 15191 ft | 337 kts | 261° |
| 2026-04-17 13:59 | 17.17159 | 78.70353 | 14407 ft | 335 kts | 262° |
| 2026-04-17 13:59 | 17.16772 | 78.67958 | 14028 ft | 333 kts | 261° |
| 2026-04-17 13:59 | 17.16388 | 78.65572 | 13617 ft | 332 kts | 261° |
| 2026-04-17 14:00 | 17.16005 | 78.63195 | 13194 ft | 331 kts | 261° |
| 2026-04-17 14:00 | 17.15622 | 78.60836 | 12809 ft | 328 kts | 261° |
| 2026-04-17 14:00 | 17.15241 | 78.58490 | 12422 ft | 326 kts | 261° |
| 2026-04-17 14:00 | 17.14863 | 78.56162 | 12039 ft | 324 kts | 261° |
| 2026-04-17 14:01 | 17.14541 | 78.53839 | 11646 ft | 322 kts | 267° |
| 2026-04-17 14:01 | 17.14494 | 78.51505 | 11262 ft | 321 kts | 269° |
| 2026-04-17 14:01 | 17.14453 | 78.49175 | 10877 ft | 319 kts | 269° |
| 2026-04-17 14:01 | 17.14407 | 78.46859 | 10493 ft | 318 kts | 269° |
| 2026-04-17 14:02 | 17.14361 | 78.44549 | 10105 ft | 317 kts | 269° |
| 2026-04-17 14:02 | 17.14314 | 78.42250 | 9800 ft | 314 kts | 269° |
| 2026-04-17 14:02 | 17.14266 | 78.40010 | 9653 ft | 304 kts | 269° |
| 2026-04-17 14:02 | 17.14220 | 78.37812 | 9336 ft | 301 kts | 269° |
| 2026-04-17 14:03 | 17.14174 | 78.35632 | 8982 ft | 300 kts | 269° |
| 2026-04-17 14:03 | 17.14130 | 78.33457 | 8614 ft | 299 kts | 268° |
| 2026-04-17 14:03 | 17.14085 | 78.31272 | 8085 ft | 305 kts | 268° |
| 2026-04-17 14:03 | 17.14040 | 78.29067 | 7854 ft | 299 kts | 268° |
| 2026-04-17 14:04 | 17.13997 | 78.26925 | 7717 ft | 290 kts | 268° |
| 2026-04-17 14:04 | 17.13954 | 78.24850 | 7592 ft | 281 kts | 268° |
| 2026-04-17 14:04 | 17.13914 | 78.22833 | 7377 ft | 277 kts | 269° |
| 2026-04-17 14:04 | 17.13890 | 78.20846 | 7252 ft | 269 kts | 269° |
| 2026-04-17 14:05 | 17.13878 | 78.18932 | 7171 ft | 259 kts | 269° |
| 2026-04-17 14:05 | 17.13877 | 78.17083 | 7054 ft | 250 kts | 269° |
| 2026-04-17 14:05 | 17.13880 | 78.15315 | 6889 ft | 243 kts | 269° |
| 2026-04-17 14:05 | 17.13884 | 78.13556 | 6644 ft | 241 kts | 269° |
| 2026-04-17 14:06 | 17.13888 | 78.11807 | 6334 ft | 240 kts | 270° |
| 2026-04-17 14:06 | 17.14200 | 78.10110 | 6010 ft | 239 kts | 298° |
| 2026-04-17 14:06 | 17.15291 | 78.08850 | 5766 ft | 232 kts | 332° |
| 2026-04-17 14:06 | 17.16774 | 78.08384 | 5639 ft | 219 kts | 355° |
| 2026-04-17 14:07 | 17.18275 | 78.08256 | 5402 ft | 216 kts | 359° |
| 2026-04-17 14:07 | 17.19765 | 78.08234 | 5104 ft | 213 kts | 13° |
| 2026-04-17 14:07 | 17.21047 | 78.08888 | 4844 ft | 205 kts | 44° |
| 2026-04-17 14:07 | 17.21936 | 78.10033 | 4550 ft | 203 kts | 64° |
| 2026-04-17 14:08 | 17.22385 | 78.11418 | 4271 ft | 201 kts | 83° |
| 2026-04-17 14:08 | 17.22436 | 78.12854 | 4129 ft | 191 kts | 89° |
| 2026-04-17 14:08 | 17.22459 | 78.14262 | 3747 ft | 198 kts | 89° |
| 2026-04-17 14:08 | 17.22482 | 78.15703 | 3613 ft | 199 kts | 89° |
| 2026-04-17 14:09 | 17.22505 | 78.17155 | 3608 ft | 200 kts | 89° |
| 2026-04-17 14:09 | 17.22527 | 78.18618 | 3608 ft | 201 kts | 89° |
| 2026-04-17 14:09 | 17.22549 | 78.20047 | 3608 ft | 190 kts | 89° |
| 2026-04-17 14:09 | 17.22569 | 78.21377 | 3600 ft | 178 kts | 89° |
| 2026-04-17 14:10 | 17.22587 | 78.22608 | 3604 ft | 173 kts | 89° |
| 2026-04-17 14:10 | 17.22606 | 78.23863 | 3601 ft | 172 kts | 89° |
| 2026-04-17 14:10 | 17.22625 | 78.25114 | 3599 ft | 171 kts | 89° |
| 2026-04-17 14:10 | 17.22643 | 78.26366 | 3604 ft | 173 kts | 89° |
| 2026-04-17 14:11 | 17.22662 | 78.27621 | 3607 ft | 173 kts | 89° |
| 2026-04-17 14:11 | 17.22680 | 78.28872 | 3605 ft | 172 kts | 89° |
| 2026-04-17 14:11 | 17.22698 | 78.30122 | 3606 ft | 172 kts | 89° |
| 2026-04-17 14:11 | 17.22717 | 78.31375 | 3604 ft | 172 kts | 89° |
| 2026-04-17 14:12 | 17.22735 | 78.32627 | 3478 ft | 168 kts | 89° |
| 2026-04-17 14:12 | 17.22752 | 78.33797 | 3312 ft | 156 kts | 89° |
| 2026-04-17 14:12 | 17.22767 | 78.34907 | 3152 ft | 150 kts | 88° |
| 2026-04-17 14:13 | 17.22799 | 78.37072 | 2783 ft | 148 kts | 88° |
| 2026-04-17 14:13 | 17.22816 | 78.38146 | 2582 ft | 146 kts | 89° |
| 2026-04-17 14:13 | 17.22826 | 78.39190 | 2380 ft | 140 kts | 90° |
| 2026-04-17 14:13 | 17.22839 | 78.40186 | 2227 ft | 133 kts | 89° |
| 2026-04-17 14:14 | 17.22861 | 78.41131 | 2045 ft | 127 kts | 89° |
| 2026-04-17 14:14 | 17.22863 | 78.41996 | 1981 ft | 106 kts | 89° |
| 2026-04-17 14:14 | 17.22873 | 78.42612 | 1978 ft | 67 kts | 89° |
| 2026-04-17 14:14 | 17.22884 | 78.42939 | 1980 ft | 28 kts | 87° |
| 2026-04-17 14:15 | 17.22891 | 78.43038 | 1982 ft | 11 kts | 81° |
| 2026-04-17 14:15 | 17.22915 | 78.43124 | 1983 ft | 13 kts | 72° |
| 2026-04-17 14:15 | 17.22959 | 78.43216 | 1981 ft | 15 kts | 61° |
| 2026-04-17 14:15 | 17.23018 | 78.43318 | 1979 ft | 18 kts | 56° |
| 2026-04-17 14:16 | 17.23082 | 78.43433 | 1979 ft | 18 kts | 66° |
| 2026-04-17 14:16 | 17.23093 | 78.43566 | 1980 ft | 19 kts | 86° |
| 2026-04-17 14:16 | 17.23117 | 78.43690 | 1982 ft | 15 kts | 43° |
| 2026-04-17 14:16 | 17.23185 | 78.43698 | 1983 ft | 8 kts | 356° |
| 2026-04-17 14:17 | 17.23231 | 78.43693 | 1980 ft | 0 kts | 342° |
| 2026-04-17 14:17 | 17.23232 | 78.43693 | 1980 ft | 0 kts | 342° |
| 2026-04-17 14:18 | 17.23233 | 78.43693 | 1981 ft | 0 kts | 341° |
| 2026-04-17 14:18 | 17.23246 | 78.43666 | 1981 ft | 9 kts | 291° |
| 2026-04-17 14:18 | 17.23252 | 78.43592 | 1979 ft | 11 kts | 266° |
| 2026-04-17 14:19 | 17.23250 | 78.43503 | 1979 ft | 13 kts | 268° |
| 2026-04-17 14:19 | 17.23248 | 78.43402 | 1979 ft | 15 kts | 269° |
| 2026-04-17 14:19 | 17.23247 | 78.43293 | 1979 ft | 10 kts | 268° |
| 2026-04-17 14:19 | 17.23247 | 78.43287 | 1979 ft | 1 kts | 268° |
| 2026-04-17 14:20 | 17.23247 | 78.43268 | 1979 ft | 4 kts | 269° |
| 2026-04-17 14:20 | 17.23246 | 78.43230 | 1979 ft | 7 kts | 269° |
| 2026-04-17 14:20 | 17.23256 | 78.43178 | 1979 ft | 8 kts | 304° |
| 2026-04-17 14:20 | 17.23309 | 78.43176 | 1979 ft | 9 kts | 39° |
| 2026-04-17 14:21 | 17.23351 | 78.43218 | 1980 ft | 9 kts | 52° |
| 2026-04-17 14:21 | 17.23364 | 78.43289 | 1980 ft | 11 kts | 88° |
| 2026-04-17 14:21 | 17.23365 | 78.43376 | 1980 ft | 12 kts | 90° |
| 2026-04-17 14:21 | 17.23366 | 78.43471 | 1980 ft | 12 kts | 88° |
| 2026-04-17 14:22 | 17.23367 | 78.43502 | 1980 ft | 0 kts | 89° |
| 2026-04-17 14:22 | 17.23367 | 78.43512 | 1980 ft | 3 kts | 89° |
| 2026-04-17 14:22 | 17.23628 | 78.43319 | 1982 ft | 0 kts | 154° |